createdAt,value
2019-05-28T00:02:01.254Z,64.61
2019-05-28T00:04:32.398Z,65.06
2019-05-28T00:07:03.837Z,65.07
2019-05-28T00:09:35.328Z,64.98
2019-05-28T00:12:06.142Z,65.79
2019-05-28T00:14:38.008Z,65.45
2019-05-28T00:17:08.695Z,65.30
2019-05-28T00:19:40.347Z,65.65
2019-05-28T00:22:11.195Z,65.36
2019-05-28T00:24:41.960Z,65.34
2019-05-28T00:27:12.698Z,64.55
2019-05-28T00:29:43.465Z,64.92
2019-05-28T00:32:14.949Z,65.16
2019-05-28T00:34:45.889Z,65.79
2019-05-28T00:37:16.633Z,65.67
2019-05-28T00:39:47.312Z,65.38
2019-05-28T00:42:20.309Z,64.53
2019-05-28T00:44:50.965Z,65.45
2019-05-28T00:47:21.726Z,65.29
2019-05-28T00:49:53.360Z,64.80
2019-05-28T00:52:24.559Z,65.49
2019-05-28T00:54:55.205Z,65.81
2019-05-28T00:57:26.985Z,65.89
2019-05-28T00:59:58.424Z,65.39
2019-05-28T01:02:29.180Z,65.65
2019-05-28T01:05:06.398Z,65.55
2019-05-28T01:07:41.133Z,65.37
2019-05-28T01:10:12.806Z,65.94
2019-05-28T01:12:43.392Z,65.96
2019-05-28T01:15:15.153Z,65.63
2019-05-28T01:17:45.844Z,65.93
2019-05-28T01:20:16.619Z,65.77
2019-05-28T01:22:47.327Z,65.63
2019-05-28T01:25:19.029Z,65.30
2019-05-28T01:27:49.671Z,65.01
2019-05-28T01:30:21.035Z,65.76
2019-05-28T01:32:51.683Z,66.06
2019-05-28T01:35:22.299Z,66.18
2019-05-28T01:37:53.199Z,66.18
2019-05-28T01:40:24.849Z,66.00
2019-05-28T01:42:56.918Z,66.60
2019-05-28T01:45:28.857Z,66.52
2019-05-28T01:47:59.431Z,66.35
2019-05-28T01:50:30.124Z,66.88
2019-05-28T01:53:00.790Z,66.02
2019-05-28T01:55:31.379Z,65.87
2019-05-28T01:58:02.067Z,66.21
2019-05-28T02:00:32.749Z,66.85
2019-05-28T02:03:03.712Z,66.76
2019-05-28T02:05:34.406Z,66.67
2019-05-28T02:08:05.085Z,66.39
2019-05-28T02:10:41.769Z,66.47
2019-05-28T02:13:12.435Z,66.58
2019-05-28T02:15:43.422Z,66.56
2019-05-28T02:18:15.291Z,65.63
2019-05-28T02:20:45.810Z,65.92
2019-05-28T02:23:16.372Z,66.03
2019-05-28T02:25:47.072Z,65.45
2019-05-28T02:28:19.997Z,65.79
2019-05-28T02:30:53.438Z,66.18
2019-05-28T02:33:24.128Z,66.20
2019-05-28T02:35:54.922Z,66.02
2019-05-28T02:38:32.641Z,65.90
2019-05-28T02:41:04.298Z,66.24
2019-05-28T02:43:35.014Z,66.43
2019-05-28T02:46:06.823Z,66.75
2019-05-28T02:48:37.520Z,66.41
2019-05-28T02:51:08.095Z,66.08
2019-05-28T02:53:40.945Z,66.24
2019-05-28T02:56:14.528Z,66.31
2019-05-28T02:58:46.242Z,66.40
2019-05-28T03:01:17.123Z,66.85
2019-05-28T03:03:49.194Z,65.99
2019-05-28T03:06:20.268Z,66.37
2019-05-28T03:08:51.083Z,66.60
2019-05-28T03:11:23.766Z,66.58
2019-05-28T03:13:54.951Z,66.24
2019-05-28T03:16:27.243Z,66.91
2019-05-28T03:18:59.213Z,66.93
2019-05-28T03:21:30.294Z,66.58
2019-05-28T03:24:01.291Z,66.52
2019-05-28T03:26:31.907Z,66.49
2019-05-28T03:29:02.534Z,66.31
2019-05-28T03:31:33.279Z,67.06
2019-05-28T03:34:09.965Z,66.91
2019-05-28T03:36:41.117Z,67.47
2019-05-28T03:39:11.785Z,67.26
2019-05-28T03:41:43.399Z,67.54
2019-05-28T03:44:15.073Z,67.50
2019-05-28T03:46:45.664Z,67.81
2019-05-28T03:49:16.331Z,67.08
2019-05-28T03:51:47.054Z,67.70
2019-05-28T03:54:18.756Z,67.91
2019-05-28T03:56:51.468Z,67.81
2019-05-28T03:59:22.110Z,68.18
2019-05-28T04:01:52.793Z,67.98
2019-05-28T04:04:23.472Z,67.13
2019-05-28T04:06:55.092Z,67.11
2019-05-28T04:09:25.732Z,66.81
2019-05-28T04:11:57.326Z,66.86
2019-05-28T04:14:27.940Z,66.69
2019-05-28T04:17:02.867Z,66.72
2019-05-28T04:19:34.483Z,66.51
2019-05-28T04:22:05.223Z,66.18
2019-05-28T04:24:35.861Z,65.81
2019-05-28T04:27:06.672Z,66.37
2019-05-28T04:29:37.406Z,66.66
2019-05-28T04:32:15.275Z,67.21
2019-05-28T04:34:46.139Z,66.47
2019-05-28T04:37:16.798Z,66.78
2019-05-28T04:39:47.333Z,67.17
2019-05-28T04:42:18.557Z,67.47
2019-05-28T04:44:50.841Z,67.06
2019-05-28T04:47:21.446Z,67.50
2019-05-28T04:49:52.137Z,67.68
2019-05-28T04:52:22.740Z,67.53
2019-05-28T04:54:53.376Z,67.65
2019-05-28T04:57:25.083Z,67.60
2019-05-28T04:59:55.819Z,67.24
2019-05-28T05:02:38.879Z,67.68
2019-05-28T05:05:10.183Z,68.10
2019-05-28T05:07:40.785Z,68.17
2019-05-28T05:10:11.548Z,67.88
2019-05-28T05:12:42.141Z,67.08
2019-05-28T05:15:13.314Z,68.04
2019-05-28T05:17:44.916Z,67.94
2019-05-28T05:20:15.769Z,68.00
2019-05-28T05:22:52.478Z,67.89
2019-05-28T05:25:24.262Z,67.28
2019-05-28T05:28:06.851Z,66.90
2019-05-28T05:30:38.613Z,67.58
2019-05-28T05:33:19.670Z,67.51
2019-05-28T05:35:41.557Z,66.59
2019-05-28T05:38:12.264Z,66.38
2019-05-28T05:40:42.773Z,65.63
2019-05-28T05:43:13.349Z,64.95
2019-05-28T05:45:44.038Z,64.21
2019-05-28T05:48:14.649Z,64.67
2019-05-28T05:50:45.520Z,64.61
2019-05-28T05:53:16.243Z,64.82
2019-05-28T05:55:46.936Z,64.33
2019-05-28T05:58:17.548Z,64.00
2019-05-28T06:00:51.451Z,64.10
2019-05-28T06:03:39.017Z,63.53
2019-05-28T06:05:55.470Z,63.86
2019-05-28T06:08:26.145Z,63.88
2019-05-28T06:10:56.881Z,63.94
2019-05-28T06:13:27.503Z,64.36
2019-05-28T06:15:58.201Z,64.09
2019-05-28T06:18:29.913Z,64.01
2019-05-28T06:21:12.491Z,63.84
2019-05-28T06:23:36.755Z,64.17
2019-05-28T06:26:08.415Z,64.70
2019-05-28T06:28:38.960Z,64.46
2019-05-28T06:31:10.159Z,64.98
2019-05-28T06:33:55.450Z,64.00
2019-05-28T06:36:16.375Z,65.07
2019-05-28T06:38:47.073Z,65.27
2019-05-28T06:41:19.922Z,65.96
2019-05-28T06:43:57.566Z,66.01
2019-05-28T06:46:29.393Z,65.32
2019-05-28T06:49:02.034Z,65.32
2019-05-28T06:51:33.610Z,65.25
2019-05-28T06:54:09.502Z,65.35
2019-05-28T06:56:41.853Z,65.30
2019-05-28T06:59:18.391Z,65.80
2019-05-28T07:01:53.985Z,66.05
2019-05-28T07:04:32.779Z,66.00
2019-05-28T07:06:59.222Z,66.74
2019-05-28T07:09:31.943Z,66.83
2019-05-28T07:12:02.703Z,66.60
2019-05-28T07:14:33.426Z,66.79
2019-05-28T07:17:06.681Z,66.79
2019-05-28T07:19:38.285Z,67.04
2019-05-28T07:22:25.245Z,67.21
2019-05-28T07:25:00.865Z,66.36
2019-05-28T07:27:31.586Z,66.68
2019-05-28T07:30:02.366Z,66.32
2019-05-28T07:32:38.404Z,66.90
2019-05-28T07:35:09.098Z,66.73
2019-05-28T07:37:39.741Z,66.74
2019-05-28T07:40:31.458Z,67.21
2019-05-28T07:43:01.164Z,67.77
2019-05-28T07:45:31.808Z,68.89
2019-05-28T07:48:02.477Z,69.15
2019-05-28T07:50:33.245Z,69.12
2019-05-28T07:53:05.128Z,68.24
2019-05-28T07:55:36.099Z,68.89
2019-05-28T07:58:06.997Z,69.24
2019-05-28T08:00:41.880Z,68.78
2019-05-28T08:03:15.573Z,68.37
2019-05-28T08:05:46.219Z,68.17
2019-05-28T08:08:21.076Z,68.54
2019-05-28T08:10:51.776Z,67.96
2019-05-28T08:13:37.513Z,67.86
2019-05-28T08:15:54.900Z,67.34
2019-05-28T08:18:25.692Z,68.73
2019-05-28T08:20:56.311Z,68.55
2019-05-28T08:23:26.990Z,68.63
2019-05-28T08:26:01.923Z,69.79
2019-05-28T08:28:36.633Z,68.79
2019-05-28T08:31:15.585Z,67.68
2019-05-28T08:33:41.890Z,68.00
2019-05-28T08:36:12.542Z,67.86
2019-05-28T08:38:43.234Z,68.86
2019-05-28T08:41:13.895Z,68.25
2019-05-28T08:43:44.497Z,67.09
2019-05-28T08:46:15.251Z,67.64
2019-05-28T08:48:45.932Z,67.83
2019-05-28T08:51:16.617Z,67.92
2019-05-28T08:53:47.229Z,69.40
2019-05-28T08:56:17.888Z,69.83
2019-05-28T08:58:48.604Z,69.34
2019-05-28T09:01:19.320Z,69.46
2019-05-28T09:03:53.155Z,70.27
2019-05-28T09:06:27.219Z,71.49
2019-05-28T09:08:57.052Z,73.81
2019-05-28T09:11:28.845Z,72.74
2019-05-28T09:13:59.489Z,75.14
2019-05-28T09:16:30.174Z,76.82
2019-05-28T09:19:00.916Z,75.90
2019-05-28T09:21:33.502Z,74.62
2019-05-28T09:24:04.241Z,75.72
2019-05-28T09:26:35.038Z,75.62
2019-05-28T09:29:05.727Z,74.42
2019-05-28T09:31:36.400Z,74.70
2019-05-28T09:34:07.054Z,76.28
2019-05-28T09:36:37.674Z,79.98
2019-05-28T09:39:08.900Z,80.09
2019-05-28T09:41:46.575Z,83.16
2019-05-28T09:44:18.217Z,85.28
2019-05-28T09:46:48.859Z,85.69
2019-05-28T09:49:19.549Z,86.95
2019-05-28T09:52:01.154Z,86.96
2019-05-28T09:54:31.821Z,85.43
2019-05-28T09:57:08.530Z,84.99
2019-05-28T09:59:41.937Z,85.44
2019-05-28T10:02:11.732Z,83.57
2019-05-28T10:04:49.154Z,83.86
2019-05-28T10:07:17.066Z,84.43
2019-05-28T10:09:52.380Z,84.68
2019-05-28T10:12:22.990Z,84.28
2019-05-28T10:14:53.668Z,85.59
2019-05-28T10:17:25.370Z,84.35
2019-05-28T10:19:56.026Z,84.36
2019-05-28T10:22:26.759Z,83.87
2019-05-28T10:24:57.311Z,84.15
2019-05-28T10:27:28.917Z,83.20
2019-05-28T10:30:00.577Z,83.38
2019-05-28T10:32:31.268Z,86.55
2019-05-28T10:35:14.756Z,84.61
2019-05-28T10:37:46.347Z,83.61
2019-05-28T10:40:20.348Z,82.42
2019-05-28T10:43:01.217Z,82.74
2019-05-28T10:45:31.949Z,82.87
2019-05-28T10:48:02.686Z,82.81
2019-05-28T10:50:34.436Z,82.92
2019-05-28T10:53:05.283Z,83.06
2019-05-28T10:55:39.505Z,83.86
2019-05-28T10:58:12.239Z,83.63
2019-05-28T11:00:44.938Z,85.09
2019-05-28T11:03:15.547Z,85.10
2019-05-28T11:05:46.351Z,84.80
2019-05-28T11:08:42.026Z,84.58
2019-05-28T11:11:16.178Z,85.20
2019-05-28T11:13:53.015Z,85.51
2019-05-28T11:16:20.391Z,86.08
2019-05-28T11:18:52.046Z,84.40
2019-05-28T11:21:22.743Z,84.13
2019-05-28T11:23:58.066Z,84.06
2019-05-28T11:26:30.727Z,86.70
2019-05-28T11:29:08.454Z,87.63
2019-05-28T11:31:42.597Z,86.09
2019-05-28T11:34:13.231Z,86.40
2019-05-28T11:36:43.997Z,84.86
2019-05-28T11:39:14.696Z,83.91
2019-05-28T11:41:45.447Z,81.47
2019-05-28T11:44:16.142Z,81.11
2019-05-28T11:46:46.738Z,80.09
2019-05-28T11:49:23.243Z,81.54
2019-05-28T11:51:53.840Z,81.48
2019-05-28T11:54:24.603Z,80.55
2019-05-28T11:56:55.317Z,80.33
2019-05-28T11:59:25.972Z,78.63
2019-05-28T12:01:56.578Z,79.68
2019-05-28T12:04:28.362Z,77.82
2019-05-28T12:06:58.989Z,76.86
2019-05-28T12:09:29.583Z,78.16
2019-05-28T12:12:00.476Z,78.63
2019-05-28T12:14:30.992Z,75.79
2019-05-28T12:17:03.634Z,77.25
2019-05-28T12:19:34.314Z,75.87
2019-05-28T12:22:10.848Z,74.26
2019-05-28T12:24:41.534Z,75.23
2019-05-28T12:27:12.311Z,75.71
2019-05-28T12:29:52.038Z,72.98
2019-05-28T12:32:15.636Z,71.16
2019-05-28T12:34:46.402Z,68.93
2019-05-28T12:37:17.186Z,71.16
2019-05-28T12:39:47.925Z,71.96
2019-05-28T12:42:18.740Z,68.76
2019-05-28T12:45:07.989Z,68.41
2019-05-28T12:47:21.987Z,67.54
2019-05-28T12:49:52.791Z,67.98
2019-05-28T12:52:23.497Z,70.30
2019-05-28T12:54:54.338Z,69.45
2019-05-28T12:57:25.174Z,69.51
2019-05-28T12:59:56.971Z,68.80
2019-05-28T13:02:28.731Z,71.44
2019-05-28T13:04:59.521Z,71.06
2019-05-28T13:07:30.264Z,69.04
2019-05-28T13:10:01.012Z,68.90
2019-05-28T13:12:32.730Z,70.03
2019-05-28T13:15:03.663Z,70.13
2019-05-28T13:17:34.517Z,69.87
2019-05-28T13:20:05.442Z,69.32
2019-05-28T13:22:37.206Z,70.30
2019-05-28T13:25:09.722Z,72.17
2019-05-28T13:27:40.484Z,73.31
2019-05-28T13:30:12.480Z,71.40
2019-05-28T13:32:44.302Z,72.68
2019-05-28T13:35:16.513Z,71.17
2019-05-28T13:37:47.284Z,70.55
2019-05-28T13:40:19.138Z,70.06
2019-05-28T13:42:49.901Z,71.05
2019-05-28T13:45:21.551Z,71.51
2019-05-28T13:47:52.356Z,70.41
2019-05-28T13:50:24.371Z,70.15
2019-05-28T13:52:56.089Z,72.60
2019-05-28T13:55:26.824Z,72.53
2019-05-28T13:57:57.550Z,73.56
2019-05-28T14:00:30.948Z,72.86
2019-05-28T14:03:03.083Z,73.01
2019-05-28T14:05:34.976Z,73.54
2019-05-28T14:08:05.838Z,72.75
2019-05-28T14:10:36.659Z,74.24
2019-05-28T14:13:07.406Z,72.76
2019-05-28T14:15:39.145Z,72.94
2019-05-28T14:18:11.003Z,73.48
2019-05-28T14:20:42.097Z,68.93
2019-05-28T14:23:13.932Z,68.18
2019-05-28T14:25:45.784Z,68.89
2019-05-28T14:28:17.524Z,69.76
2019-05-28T14:30:59.451Z,71.84
2019-05-28T14:33:20.762Z,71.07
2019-05-28T14:35:51.557Z,69.06
2019-05-28T14:38:22.362Z,67.81
2019-05-28T14:40:53.210Z,66.58
2019-05-28T14:43:23.959Z,67.90
2019-05-28T14:45:54.884Z,66.11
2019-05-28T14:48:25.603Z,66.64
2019-05-28T14:50:56.389Z,66.71
2019-05-28T14:53:27.166Z,67.57
2019-05-28T14:55:59.934Z,66.98
2019-05-28T14:58:30.696Z,67.07
2019-05-28T15:01:02.044Z,65.35
2019-05-28T15:03:36.203Z,66.72
2019-05-28T15:06:07.000Z,66.68
2019-05-28T15:08:37.762Z,66.85
2019-05-28T15:11:08.538Z,63.33
2019-05-28T15:13:39.312Z,65.39
2019-05-28T15:16:10.042Z,64.99
2019-05-28T15:18:40.880Z,65.67
2019-05-28T15:21:11.657Z,67.56
2019-05-28T15:23:42.447Z,67.28
2019-05-28T15:26:13.254Z,68.20
2019-05-28T15:28:45.078Z,67.99
2019-05-28T15:31:15.795Z,69.05
2019-05-28T15:33:46.730Z,68.60
2019-05-28T15:36:17.503Z,67.97
2019-05-28T15:38:48.192Z,68.60
2019-05-28T15:41:19.006Z,69.87
2019-05-28T15:43:50.780Z,69.39
2019-05-28T15:46:21.376Z,68.74
2019-05-28T15:48:52.164Z,68.92
2019-05-28T15:51:22.967Z,68.49
2019-05-28T15:53:53.735Z,69.44
2019-05-28T15:56:25.485Z,70.28
2019-05-28T15:58:56.253Z,71.08
2019-05-28T16:01:26.933Z,70.48
2019-05-28T16:03:57.806Z,69.64
2019-05-28T16:06:28.537Z,69.56
2019-05-28T16:08:59.279Z,70.50
2019-05-28T16:11:31.037Z,70.38
2019-05-28T16:14:02.827Z,70.26
2019-05-28T16:16:37.478Z,69.43
2019-05-28T16:19:08.244Z,68.52
2019-05-28T16:21:39.686Z,69.68
2019-05-28T16:24:10.450Z,69.24
2019-05-28T16:26:41.114Z,69.80
2019-05-28T16:29:12.911Z,68.81
2019-05-28T16:31:43.584Z,69.20
2019-05-28T16:34:14.164Z,68.54
2019-05-28T16:36:46.992Z,68.71
2019-05-28T16:39:17.904Z,69.24
2019-05-28T16:41:48.660Z,69.78
2019-05-28T16:44:33.405Z,69.71
2019-05-28T16:47:17.510Z,69.40
2019-05-28T16:49:37.508Z,69.96
2019-05-28T16:52:08.201Z,69.90
2019-05-28T16:54:40.142Z,69.96
2019-05-28T16:57:11.728Z,68.71
2019-05-28T16:59:48.597Z,68.35
2019-05-28T17:02:19.315Z,69.08
2019-05-28T17:04:52.213Z,68.46
2019-05-28T17:07:23.927Z,69.19
2019-05-28T17:09:55.225Z,69.13
2019-05-28T17:12:26.745Z,67.92
2019-05-28T17:14:57.470Z,68.52
2019-05-28T17:17:28.294Z,68.14
2019-05-28T17:19:58.947Z,66.68
2019-05-28T17:22:29.636Z,66.28
2019-05-28T17:25:00.377Z,65.91
2019-05-28T17:27:31.042Z,65.52
2019-05-28T17:30:17.310Z,66.69
2019-05-28T17:32:40.863Z,66.12
2019-05-28T17:35:11.688Z,66.98
2019-05-28T17:37:45.604Z,64.77
2019-05-28T17:40:21.861Z,66.06
2019-05-28T17:42:48.660Z,68.17
2019-05-28T17:45:19.570Z,66.62
2019-05-28T17:47:50.308Z,65.87
2019-05-28T17:50:23.120Z,65.39
2019-05-28T17:52:53.726Z,65.49
2019-05-28T17:55:24.341Z,65.43
2019-05-28T17:57:55.972Z,65.56
2019-05-28T18:00:29.826Z,65.63
2019-05-28T18:03:05.769Z,65.50
2019-05-28T18:05:40.449Z,64.03
2019-05-28T18:08:12.202Z,63.87
2019-05-28T18:10:43.879Z,65.05
2019-05-28T18:13:14.687Z,65.09
2019-05-28T18:15:46.340Z,64.37
2019-05-28T18:18:17.031Z,64.39
2019-05-28T18:20:47.607Z,65.56
2019-05-28T18:23:20.399Z,65.26
2019-05-28T18:25:50.996Z,64.83
2019-05-28T18:28:22.704Z,64.32
2019-05-28T18:30:57.392Z,64.33
2019-05-28T18:33:28.000Z,63.78
2019-05-28T18:35:59.372Z,63.54
2019-05-28T18:38:29.965Z,63.76
2019-05-28T18:41:00.563Z,63.48
2019-05-28T18:43:41.373Z,64.00
2019-05-28T18:46:15.431Z,65.09
2019-05-28T18:48:47.385Z,65.38
2019-05-28T18:51:22.572Z,64.72
2019-05-28T18:53:59.565Z,65.57
2019-05-28T18:56:30.213Z,66.80
2019-05-28T18:59:02.953Z,65.85
2019-05-28T19:01:34.667Z,65.99
2019-05-28T19:04:08.891Z,66.66
2019-05-28T19:06:42.527Z,66.92
2019-05-28T19:09:13.274Z,66.42
2019-05-28T19:11:50.326Z,65.71
2019-05-28T19:14:21.392Z,65.66
2019-05-28T19:16:55.645Z,65.65
2019-05-28T19:19:26.257Z,66.14
2019-05-28T19:21:57.021Z,65.92
2019-05-28T19:24:28.211Z,67.93
2019-05-28T19:26:58.730Z,68.21
2019-05-28T19:29:32.976Z,66.06
2019-05-28T19:32:04.663Z,66.46
2019-05-28T19:34:35.709Z,67.38
2019-05-28T19:37:07.314Z,65.64
2019-05-28T19:39:39.333Z,65.74
2019-05-28T19:42:11.199Z,65.59
2019-05-28T19:44:43.195Z,68.32
2019-05-28T19:47:16.467Z,65.45
2019-05-28T19:49:47.146Z,66.14
2019-05-28T19:52:19.096Z,68.41
2019-05-28T19:54:49.931Z,66.88
2019-05-28T19:57:20.822Z,68.53
2019-05-28T19:59:57.600Z,65.34
2019-05-28T20:02:28.642Z,65.53
2019-05-28T20:04:59.507Z,66.64
2019-05-28T20:07:31.254Z,65.37
2019-05-28T20:10:03.120Z,64.81
2019-05-28T20:12:33.980Z,65.64
2019-05-28T20:15:05.424Z,65.70
2019-05-28T20:17:36.762Z,65.90
2019-05-28T20:20:07.610Z,65.45
2019-05-28T20:22:39.496Z,66.28
2019-05-28T20:25:10.431Z,65.16
2019-05-28T20:27:41.332Z,65.27
2019-05-28T20:30:14.016Z,65.33
2019-05-28T20:32:45.131Z,65.11
2019-05-28T20:35:15.906Z,65.72
2019-05-28T20:37:47.644Z,65.05
2019-05-28T20:40:18.559Z,65.62
2019-05-28T20:42:49.337Z,65.52
2019-05-28T20:45:20.969Z,64.98
2019-05-28T20:47:51.690Z,65.15
2019-05-28T20:50:22.564Z,64.39
2019-05-28T20:52:54.298Z,63.49
2019-05-28T20:55:25.016Z,62.62
2019-05-28T20:57:57.360Z,62.44
2019-05-28T21:00:28.325Z,62.99
2019-05-28T21:02:59.187Z,62.55
2019-05-28T21:05:30.202Z,62.49
2019-05-28T21:08:02.181Z,62.31
2019-05-28T21:10:33.146Z,62.88
2019-05-28T21:13:04.869Z,63.39
2019-05-28T21:15:35.699Z,62.22
2019-05-28T21:18:06.511Z,61.86
2019-05-28T21:20:38.223Z,61.82
2019-05-28T21:23:08.950Z,62.18
2019-05-28T21:25:40.787Z,61.13
2019-05-28T21:28:11.539Z,60.41
2019-05-28T21:30:42.364Z,61.05
2019-05-28T21:33:13.096Z,61.27
2019-05-28T21:35:43.915Z,60.93
2019-05-28T21:38:15.721Z,61.33
2019-05-28T21:40:48.507Z,61.29
2019-05-28T21:43:23.388Z,60.64
2019-05-28T21:45:54.110Z,61.48
2019-05-28T21:48:24.876Z,60.53
2019-05-28T21:50:56.663Z,60.06
2019-05-28T21:53:28.496Z,62.21
2019-05-28T21:56:01.504Z,62.32
2019-05-28T21:58:36.200Z,61.12
2019-05-28T22:01:13.172Z,62.51
2019-05-28T22:03:43.747Z,61.63
2019-05-28T22:06:15.445Z,61.63
2019-05-28T22:08:47.184Z,61.73
2019-05-28T22:11:17.871Z,62.31
2019-05-28T22:13:51.714Z,63.81
2019-05-28T22:16:29.525Z,62.27
2019-05-28T22:19:00.326Z,63.98
2019-05-28T22:21:31.030Z,64.42
2019-05-28T22:24:04.924Z,61.29
2019-05-28T22:26:35.918Z,61.53
2019-05-28T22:29:07.928Z,63.24
2019-05-28T22:31:40.824Z,62.13
2019-05-28T22:34:11.563Z,64.60
2019-05-28T22:36:42.337Z,65.28
2019-05-28T22:39:13.053Z,65.61
2019-05-28T22:41:43.816Z,63.69
2019-05-28T22:44:14.583Z,64.87
2019-05-28T22:46:45.313Z,63.35
2019-05-28T22:49:16.045Z,63.22
2019-05-28T22:51:46.855Z,63.29
2019-05-28T22:54:17.633Z,64.40
2019-05-28T22:56:48.382Z,63.88
2019-05-28T22:59:19.142Z,63.89
2019-05-28T23:01:49.805Z,65.05
2019-05-28T23:04:20.574Z,65.73
2019-05-28T23:06:51.402Z,65.90
2019-05-28T23:09:22.227Z,66.26
2019-05-28T23:11:52.972Z,66.88
2019-05-28T23:14:23.768Z,66.98
2019-05-28T23:16:54.464Z,66.59
2019-05-28T23:19:25.175Z,67.71
2019-05-28T23:21:55.942Z,65.82
2019-05-28T23:24:26.687Z,67.55
2019-05-28T23:26:57.415Z,68.35
2019-05-28T23:29:28.197Z,67.78
2019-05-28T23:31:58.971Z,66.60
2019-05-28T23:34:29.777Z,66.16
2019-05-28T23:37:00.558Z,66.98
2019-05-28T23:39:31.298Z,67.52
2019-05-28T23:42:03.308Z,67.01
2019-05-28T23:44:34.173Z,66.63
2019-05-28T23:47:06.016Z,65.53
2019-05-28T23:49:36.898Z,66.55
2019-05-28T23:52:08.676Z,68.61
2019-05-28T23:54:39.412Z,68.45
2019-05-28T23:57:10.192Z,68.18
2019-05-28T23:59:40.912Z,67.55
